sensor_id;sensor_type;location;lat;lon;timestamp;P1;durP1;ratioP1;P2;durP2;ratioP2
56045;SDS011;41913;51.030;3.706;2023-11-21T00:01:41;3.30;;;2.88;;
56045;SDS011;41913;51.030;3.706;2023-11-21T00:04:07;3.90;;;2.90;;
56045;SDS011;41913;51.030;3.706;2023-11-21T00:06:33;3.83;;;2.78;;
56045;SDS011;41913;51.030;3.706;2023-11-21T00:08:59;5.25;;;2.85;;
56045;SDS011;41913;51.030;3.706;2023-11-21T00:11:24;3.70;;;2.80;;
56045;SDS011;41913;51.030;3.706;2023-11-21T00:13:50;3.90;;;2.70;;
56045;SDS011;41913;51.030;3.706;2023-11-21T00:16:16;2.83;;;2.63;;
56045;SDS011;41913;51.030;3.706;2023-11-21T00:18:43;4.72;;;3.15;;
56045;SDS011;41913;51.030;3.706;2023-11-21T00:21:11;4.47;;;2.95;;
56045;SDS011;41913;51.030;3.706;2023-11-21T00:23:38;3.40;;;2.63;;
56045;SDS011;41913;51.030;3.706;2023-11-21T00:26:04;4.50;;;2.92;;
56045;SDS011;41913;51.030;3.706;2023-11-21T00:28:30;6.18;;;3.25;;
56045;SDS011;41913;51.030;3.706;2023-11-21T00:30:56;5.90;;;3.35;;
56045;SDS011;41913;51.030;3.706;2023-11-21T00:33:21;6.13;;;3.00;;
56045;SDS011;41913;51.030;3.706;2023-11-21T00:35:47;3.67;;;2.90;;
56045;SDS011;41913;51.030;3.706;2023-11-21T00:38:12;3.90;;;3.00;;
56045;SDS011;41913;51.030;3.706;2023-11-21T00:40:38;4.60;;;2.58;;
56045;SDS011;41913;51.030;3.706;2023-11-21T00:43:04;3.55;;;3.25;;
56045;SDS011;41913;51.030;3.706;2023-11-21T00:45:30;3.33;;;3.03;;
56045;SDS011;41913;51.030;3.706;2023-11-21T00:47:56;3.33;;;3.00;;
56045;SDS011;41913;51.030;3.706;2023-11-21T00:50:23;3.53;;;2.70;;
56045;SDS011;41913;51.030;3.706;2023-11-21T00:52:49;4.68;;;3.58;;
56045;SDS011;41913;51.030;3.706;2023-11-21T00:55:16;4.72;;;2.85;;
56045;SDS011;41913;51.030;3.706;2023-11-21T00:57:43;3.10;;;2.88;;
56045;SDS011;41913;51.030;3.706;2023-11-21T01:00:08;4.05;;;2.92;;
56045;SDS011;41913;51.030;3.706;2023-11-21T01:02:43;2.92;;;2.72;;
56045;SDS011;41913;51.030;3.706;2023-11-21T01:05:10;7.78;;;2.80;;
56045;SDS011;41913;51.030;3.706;2023-11-21T01:07:36;5.57;;;3.05;;
56045;SDS011;41913;51.030;3.706;2023-11-21T01:10:02;4.47;;;3.22;;
56045;SDS011;41913;51.030;3.706;2023-11-21T01:12:31;3.15;;;2.95;;
56045;SDS011;41913;51.030;3.706;2023-11-21T01:14:56;2.72;;;2.63;;
56045;SDS011;41913;51.030;3.706;2023-11-21T01:17:25;3.92;;;3.58;;
56045;SDS011;41913;51.030;3.706;2023-11-21T01:19:52;3.20;;;2.92;;
56045;SDS011;41913;51.030;3.706;2023-11-21T01:22:18;3.10;;;2.90;;
56045;SDS011;41913;51.030;3.706;2023-11-21T01:24:47;2.85;;;2.67;;
56045;SDS011;41913;51.030;3.706;2023-11-21T01:27:13;3.05;;;2.90;;
56045;SDS011;41913;51.030;3.706;2023-11-21T01:29:38;3.03;;;2.83;;
56045;SDS011;41913;51.030;3.706;2023-11-21T01:32:04;2.97;;;2.55;;
56045;SDS011;41913;51.030;3.706;2023-11-21T01:34:33;3.45;;;2.80;;
56045;SDS011;41913;51.030;3.706;2023-11-21T01:36:59;3.00;;;2.72;;
56045;SDS011;41913;51.030;3.706;2023-11-21T01:39:26;3.15;;;2.85;;
56045;SDS011;41913;51.030;3.706;2023-11-21T01:41:52;3.08;;;2.60;;
56045;SDS011;41913;51.030;3.706;2023-11-21T01:44:19;4.00;;;2.42;;
56045;SDS011;41913;51.030;3.706;2023-11-21T01:46:45;2.78;;;2.58;;
56045;SDS011;41913;51.030;3.706;2023-11-21T01:49:13;2.88;;;2.53;;
56045;SDS011;41913;51.030;3.706;2023-11-21T01:51:43;2.42;;;2.25;;
56045;SDS011;41913;51.030;3.706;2023-11-21T01:54:14;3.78;;;3.00;;
56045;SDS011;41913;51.030;3.706;2023-11-21T01:56:42;3.17;;;2.80;;
56045;SDS011;41913;51.030;3.706;2023-11-21T01:59:10;2.90;;;2.70;;
56045;SDS011;41913;51.030;3.706;2023-11-21T02:01:39;3.92;;;2.70;;
56045;SDS011;41913;51.030;3.706;2023-11-21T02:04:06;2.55;;;2.38;;
56045;SDS011;41913;51.030;3.706;2023-11-21T02:06:33;4.10;;;3.15;;
56045;SDS011;41913;51.030;3.706;2023-11-21T02:08:59;2.63;;;2.45;;
56045;SDS011;41913;51.030;3.706;2023-11-21T02:11:25;2.90;;;2.70;;
56045;SDS011;41913;51.030;3.706;2023-11-21T02:13:52;3.03;;;2.72;;
56045;SDS011;41913;51.030;3.706;2023-11-21T02:16:19;2.88;;;2.65;;
56045;SDS011;41913;51.030;3.706;2023-11-21T02:18:47;2.83;;;2.22;;
56045;SDS011;41913;51.030;3.706;2023-11-21T02:21:14;2.83;;;2.60;;
56045;SDS011;41913;51.030;3.706;2023-11-21T02:23:40;2.75;;;2.45;;
56045;SDS011;41913;51.030;3.706;2023-11-21T02:26:11;2.50;;;2.40;;
56045;SDS011;41913;51.030;3.706;2023-11-21T02:28:39;2.63;;;2.42;;
56045;SDS011;41913;51.030;3.706;2023-11-21T02:31:05;2.92;;;2.70;;
56045;SDS011;41913;51.030;3.706;2023-11-21T02:33:32;2.80;;;2.60;;
56045;SDS011;41913;51.030;3.706;2023-11-21T02:36:01;2.58;;;2.38;;
56045;SDS011;41913;51.030;3.706;2023-11-21T02:38:28;2.92;;;2.72;;
56045;SDS011;41913;51.030;3.706;2023-11-21T02:40:53;3.20;;;2.97;;
56045;SDS011;41913;51.030;3.706;2023-11-21T02:43:19;2.20;;;2.00;;
56045;SDS011;41913;51.030;3.706;2023-11-21T02:45:45;2.58;;;2.38;;
56045;SDS011;41913;51.030;3.706;2023-11-21T02:48:11;2.90;;;2.65;;
56045;SDS011;41913;51.030;3.706;2023-11-21T02:50:36;2.88;;;2.67;;
56045;SDS011;41913;51.030;3.706;2023-11-21T02:53:02;2.60;;;2.40;;
56045;SDS011;41913;51.030;3.706;2023-11-21T02:55:30;2.88;;;2.67;;
56045;SDS011;41913;51.030;3.706;2023-11-21T02:58:00;2.40;;;2.30;;
56045;SDS011;41913;51.030;3.706;2023-11-21T03:00:26;2.50;;;2.38;;
56045;SDS011;41913;51.030;3.706;2023-11-21T03:02:53;2.40;;;2.30;;
56045;SDS011;41913;51.030;3.706;2023-11-21T03:05:20;4.40;;;2.22;;
56045;SDS011;41913;51.030;3.706;2023-11-21T03:07:46;2.80;;;2.60;;
56045;SDS011;41913;51.030;3.706;2023-11-21T03:10:12;3.13;;;2.60;;
56045;SDS011;41913;51.030;3.706;2023-11-21T03:12:38;3.90;;;2.50;;
56045;SDS011;41913;51.030;3.706;2023-11-21T03:15:05;2.95;;;2.70;;
56045;SDS011;41913;51.030;3.706;2023-11-21T03:17:31;2.70;;;2.50;;
56045;SDS011;41913;51.030;3.706;2023-11-21T03:19:59;2.33;;;2.20;;
56045;SDS011;41913;51.030;3.706;2023-11-21T03:22:25;2.42;;;2.22;;
56045;SDS011;41913;51.030;3.706;2023-11-21T03:24:51;2.50;;;2.30;;
56045;SDS011;41913;51.030;3.706;2023-11-21T03:27:18;2.38;;;2.05;;
56045;SDS011;41913;51.030;3.706;2023-11-21T03:29:44;2.28;;;2.17;;
56045;SDS011;41913;51.030;3.706;2023-11-21T03:32:11;2.92;;;2.40;;
56045;SDS011;41913;51.030;3.706;2023-11-21T03:34:52;1.90;;;1.80;;
56045;SDS011;41913;51.030;3.706;2023-11-21T03:37:22;2.67;;;2.47;;
56045;SDS011;41913;51.030;3.706;2023-11-21T03:39:48;2.50;;;2.30;;
56045;SDS011;41913;51.030;3.706;2023-11-21T03:42:14;2.60;;;2.40;;
56045;SDS011;41913;51.030;3.706;2023-11-21T03:44:39;3.42;;;2.40;;
56045;SDS011;41913;51.030;3.706;2023-11-21T03:47:05;2.53;;;2.33;;
56045;SDS011;41913;51.030;3.706;2023-11-21T03:49:31;2.38;;;2.17;;
56045;SDS011;41913;51.030;3.706;2023-11-21T03:51:56;2.55;;;2.25;;
56045;SDS011;41913;51.030;3.706;2023-11-21T03:54:22;2.15;;;2.03;;
56045;SDS011;41913;51.030;3.706;2023-11-21T03:56:48;2.40;;;2.20;;
56045;SDS011;41913;51.030;3.706;2023-11-21T03:59:14;2.92;;;2.53;;
56045;SDS011;41913;51.030;3.706;2023-11-21T04:01:40;3.40;;;2.35;;
56045;SDS011;41913;51.030;3.706;2023-11-21T04:04:05;3.55;;;2.38;;
56045;SDS011;41913;51.030;3.706;2023-11-21T04:06:31;2.97;;;2.55;;
56045;SDS011;41913;51.030;3.706;2023-11-21T04:08:58;2.25;;;2.00;;
56045;SDS011;41913;51.030;3.706;2023-11-21T04:11:24;2.10;;;1.95;;
56045;SDS011;41913;51.030;3.706;2023-11-21T04:13:49;2.40;;;2.20;;
56045;SDS011;41913;51.030;3.706;2023-11-21T04:16:15;2.33;;;2.20;;
56045;SDS011;41913;51.030;3.706;2023-11-21T04:18:41;2.25;;;2.03;;
56045;SDS011;41913;51.030;3.706;2023-11-21T04:21:08;2.92;;;2.50;;
56045;SDS011;41913;51.030;3.706;2023-11-21T04:23:35;2.97;;;2.35;;
56045;SDS011;41913;51.030;3.706;2023-11-21T04:26:01;2.17;;;2.08;;
56045;SDS011;41913;51.030;3.706;2023-11-21T04:28:27;2.45;;;2.28;;
56045;SDS011;41913;51.030;3.706;2023-11-21T04:30:53;2.45;;;2.13;;
56045;SDS011;41913;51.030;3.706;2023-11-21T04:33:18;1.88;;;1.77;;
56045;SDS011;41913;51.030;3.706;2023-11-21T04:35:44;1.80;;;1.73;;
56045;SDS011;41913;51.030;3.706;2023-11-21T04:38:10;2.03;;;1.92;;
56045;SDS011;41913;51.030;3.706;2023-11-21T04:40:36;3.65;;;2.35;;
56045;SDS011;41913;51.030;3.706;2023-11-21T04:43:01;2.78;;;2.10;;
56045;SDS011;41913;51.030;3.706;2023-11-21T04:45:29;2.60;;;2.00;;
56045;SDS011;41913;51.030;3.706;2023-11-21T04:47:55;2.22;;;2.05;;
56045;SDS011;41913;51.030;3.706;2023-11-21T04:50:21;2.25;;;2.15;;
56045;SDS011;41913;51.030;3.706;2023-11-21T04:52:47;2.85;;;2.13;;
56045;SDS011;41913;51.030;3.706;2023-11-21T04:55:13;2.35;;;1.95;;
56045;SDS011;41913;51.030;3.706;2023-11-21T04:57:40;2.03;;;1.92;;
56045;SDS011;41913;51.030;3.706;2023-11-21T05:00:07;1.95;;;1.83;;
56045;SDS011;41913;51.030;3.706;2023-11-21T05:02:34;2.05;;;1.92;;
56045;SDS011;41913;51.030;3.706;2023-11-21T05:05:00;1.92;;;1.83;;
56045;SDS011;41913;51.030;3.706;2023-11-21T05:07:27;2.17;;;1.98;;
56045;SDS011;41913;51.030;3.706;2023-11-21T05:09:55;2.03;;;1.92;;
56045;SDS011;41913;51.030;3.706;2023-11-21T05:12:24;1.90;;;1.80;;
56045;SDS011;41913;51.030;3.706;2023-11-21T05:14:50;2.20;;;2.10;;
56045;SDS011;41913;51.030;3.706;2023-11-21T05:17:16;1.90;;;1.80;;
56045;SDS011;41913;51.030;3.706;2023-11-21T05:19:42;1.98;;;1.88;;
56045;SDS011;41913;51.030;3.706;2023-11-21T05:22:10;2.17;;;1.70;;
56045;SDS011;41913;51.030;3.706;2023-11-21T05:24:37;1.75;;;1.65;;
56045;SDS011;41913;51.030;3.706;2023-11-21T05:27:04;1.80;;;1.70;;
56045;SDS011;41913;51.030;3.706;2023-11-21T05:29:30;3.45;;;1.92;;
56045;SDS011;41913;51.030;3.706;2023-11-21T05:31:57;2.33;;;2.00;;
56045;SDS011;41913;51.030;3.706;2023-11-21T05:34:23;1.80;;;1.70;;
56045;SDS011;41913;51.030;3.706;2023-11-21T05:36:49;1.90;;;1.80;;
56045;SDS011;41913;51.030;3.706;2023-11-21T05:39:15;1.92;;;1.83;;
56045;SDS011;41913;51.030;3.706;2023-11-21T05:41:42;1.58;;;1.58;;
56045;SDS011;41913;51.030;3.706;2023-11-21T05:44:08;1.88;;;1.77;;
56045;SDS011;41913;51.030;3.706;2023-11-21T05:46:34;2.58;;;2.03;;
56045;SDS011;41913;51.030;3.706;2023-11-21T05:49:00;1.75;;;1.65;;
56045;SDS011;41913;51.030;3.706;2023-11-21T05:51:25;3.28;;;1.92;;
56045;SDS011;41913;51.030;3.706;2023-11-21T05:53:51;3.20;;;2.13;;
56045;SDS011;41913;51.030;3.706;2023-11-21T05:56:17;2.08;;;1.85;;
56045;SDS011;41913;51.030;3.706;2023-11-21T05:58:44;1.95;;;1.85;;
56045;SDS011;41913;51.030;3.706;2023-11-21T06:01:09;2.20;;;2.00;;
56045;SDS011;41913;51.030;3.706;2023-11-21T06:03:39;1.70;;;1.60;;
56045;SDS011;41913;51.030;3.706;2023-11-21T06:06:04;2.35;;;2.25;;
56045;SDS011;41913;51.030;3.706;2023-11-21T06:08:31;2.25;;;2.15;;
56045;SDS011;41913;51.030;3.706;2023-11-21T06:10:57;2.20;;;2.10;;
56045;SDS011;41913;51.030;3.706;2023-11-21T06:13:23;2.22;;;2.13;;
56045;SDS011;41913;51.030;3.706;2023-11-21T06:15:50;3.22;;;2.22;;
56045;SDS011;41913;51.030;3.706;2023-11-21T06:18:16;2.00;;;1.90;;
56045;SDS011;41913;51.030;3.706;2023-11-21T06:20:45;2.05;;;1.92;;
56045;SDS011;41913;51.030;3.706;2023-11-21T06:23:11;1.50;;;1.50;;
56045;SDS011;41913;51.030;3.706;2023-11-21T06:25:37;7.45;;;2.15;;
56045;SDS011;41913;51.030;3.706;2023-11-21T06:28:03;10.75;;;1.92;;
56045;SDS011;41913;51.030;3.706;2023-11-21T06:30:28;2.33;;;1.88;;
56045;SDS011;41913;51.030;3.706;2023-11-21T06:32:54;3.97;;;2.53;;
56045;SDS011;41913;51.030;3.706;2023-11-21T06:35:21;2.70;;;2.40;;
56045;SDS011;41913;51.030;3.706;2023-11-21T06:37:48;11.68;;;2.85;;
56045;SDS011;41913;51.030;3.706;2023-11-21T06:40:14;21.35;;;4.40;;
56045;SDS011;41913;51.030;3.706;2023-11-21T06:42:40;35.47;;;5.57;;
56045;SDS011;41913;51.030;3.706;2023-11-21T06:45:06;38.13;;;5.45;;
56045;SDS011;41913;51.030;3.706;2023-11-21T06:47:34;41.85;;;5.90;;
56045;SDS011;41913;51.030;3.706;2023-11-21T06:50:00;34.60;;;5.25;;
56045;SDS011;41913;51.030;3.706;2023-11-21T06:52:26;25.90;;;6.00;;
56045;SDS011;41913;51.030;3.706;2023-11-21T06:54:52;17.30;;;5.00;;
56045;SDS011;41913;51.030;3.706;2023-11-21T06:57:17;16.65;;;5.38;;
56045;SDS011;41913;51.030;3.706;2023-11-21T06:59:43;13.90;;;4.43;;
56045;SDS011;41913;51.030;3.706;2023-11-21T07:02:09;13.15;;;4.85;;
56045;SDS011;41913;51.030;3.706;2023-11-21T07:04:35;9.07;;;4.78;;
56045;SDS011;41913;51.030;3.706;2023-11-21T07:07:04;6.75;;;4.47;;
56045;SDS011;41913;51.030;3.706;2023-11-21T07:09:32;13.45;;;3.60;;
56045;SDS011;41913;51.030;3.706;2023-11-21T07:11:58;15.82;;;4.47;;
56045;SDS011;41913;51.030;3.706;2023-11-21T07:14:23;11.55;;;4.75;;
56045;SDS011;41913;51.030;3.706;2023-11-21T07:16:49;6.05;;;3.33;;
56045;SDS011;41913;51.030;3.706;2023-11-21T07:19:16;7.65;;;3.90;;
56045;SDS011;41913;51.030;3.706;2023-11-21T07:21:42;15.48;;;4.18;;
56045;SDS011;41913;51.030;3.706;2023-11-21T07:24:08;16.55;;;4.32;;
56045;SDS011;41913;51.030;3.706;2023-11-21T07:26:34;13.55;;;4.25;;
56045;SDS011;41913;51.030;3.706;2023-11-21T07:29:01;8.98;;;3.95;;
56045;SDS011;41913;51.030;3.706;2023-11-21T07:31:31;7.35;;;4.38;;
56045;SDS011;41913;51.030;3.706;2023-11-21T07:33:59;7.00;;;4.18;;
56045;SDS011;41913;51.030;3.706;2023-11-21T07:36:26;8.77;;;4.00;;
56045;SDS011;41913;51.030;3.706;2023-11-21T07:38:52;7.68;;;4.13;;
56045;SDS011;41913;51.030;3.706;2023-11-21T07:41:18;6.60;;;4.07;;
56045;SDS011;41913;51.030;3.706;2023-11-21T07:43:44;7.75;;;4.18;;
56045;SDS011;41913;51.030;3.706;2023-11-21T07:46:10;7.18;;;3.33;;
56045;SDS011;41913;51.030;3.706;2023-11-21T07:48:40;6.80;;;3.83;;
56045;SDS011;41913;51.030;3.706;2023-11-21T07:51:07;8.27;;;3.67;;
56045;SDS011;41913;51.030;3.706;2023-11-21T07:53:33;8.95;;;4.10;;
56045;SDS011;41913;51.030;3.706;2023-11-21T07:56:03;7.80;;;3.78;;
56045;SDS011;41913;51.030;3.706;2023-11-21T07:58:30;5.65;;;3.33;;
56045;SDS011;41913;51.030;3.706;2023-11-21T08:00:56;11.05;;;3.72;;
56045;SDS011;41913;51.030;3.706;2023-11-21T08:03:23;8.60;;;3.40;;
56045;SDS011;41913;51.030;3.706;2023-11-21T08:05:49;7.60;;;4.00;;
56045;SDS011;41913;51.030;3.706;2023-11-21T08:08:15;9.40;;;3.97;;
56045;SDS011;41913;51.030;3.706;2023-11-21T08:10:43;5.45;;;3.85;;
56045;SDS011;41913;51.030;3.706;2023-11-21T08:15:50;6.90;;;3.83;;
56045;SDS011;41913;51.030;3.706;2023-11-21T08:18:19;11.00;;;4.93;;
56045;SDS011;41913;51.030;3.706;2023-11-21T08:20:46;6.50;;;4.05;;
56045;SDS011;41913;51.030;3.706;2023-11-21T08:23:13;8.75;;;4.50;;
56045;SDS011;41913;51.030;3.706;2023-11-21T08:25:41;7.35;;;4.47;;
56045;SDS011;41913;51.030;3.706;2023-11-21T08:28:08;8.60;;;4.82;;
56045;SDS011;41913;51.030;3.706;2023-11-21T08:30:41;8.93;;;4.93;;
56045;SDS011;41913;51.030;3.706;2023-11-21T08:33:07;9.45;;;4.85;;
56045;SDS011;41913;51.030;3.706;2023-11-21T08:35:39;8.07;;;4.65;;
56045;SDS011;41913;51.030;3.706;2023-11-21T08:38:06;6.15;;;4.60;;
56045;SDS011;41913;51.030;3.706;2023-11-21T08:40:32;7.95;;;4.80;;
56045;SDS011;41913;51.030;3.706;2023-11-21T08:42:59;8.50;;;4.90;;
56045;SDS011;41913;51.030;3.706;2023-11-21T08:45:28;6.63;;;4.95;;
56045;SDS011;41913;51.030;3.706;2023-11-21T08:48:02;6.45;;;4.88;;
56045;SDS011;41913;51.030;3.706;2023-11-21T08:50:31;6.72;;;4.78;;
56045;SDS011;41913;51.030;3.706;2023-11-21T08:52:57;8.30;;;5.90;;
56045;SDS011;41913;51.030;3.706;2023-11-21T08:55:22;7.88;;;5.70;;
56045;SDS011;41913;51.030;3.706;2023-11-21T08:57:48;5.97;;;5.38;;
56045;SDS011;41913;51.030;3.706;2023-11-21T09:00:14;6.30;;;5.10;;
56045;SDS011;41913;51.030;3.706;2023-11-21T09:02:42;8.90;;;5.03;;
56045;SDS011;41913;51.030;3.706;2023-11-21T09:05:12;5.65;;;5.05;;
56045;SDS011;41913;51.030;3.706;2023-11-21T09:07:40;5.45;;;4.63;;
56045;SDS011;41913;51.030;3.706;2023-11-21T09:10:06;6.18;;;4.70;;
56045;SDS011;41913;51.030;3.706;2023-11-21T09:12:35;6.38;;;4.85;;
56045;SDS011;41913;51.030;3.706;2023-11-21T09:15:05;7.43;;;4.35;;
56045;SDS011;41913;51.030;3.706;2023-11-21T09:17:32;6.30;;;3.85;;
56045;SDS011;41913;51.030;3.706;2023-11-21T09:20:03;4.03;;;3.72;;
56045;SDS011;41913;51.030;3.706;2023-11-21T09:22:32;5.07;;;4.10;;
56045;SDS011;41913;51.030;3.706;2023-11-21T09:24:58;6.20;;;2.90;;
56045;SDS011;41913;51.030;3.706;2023-11-21T09:27:24;4.28;;;3.22;;
56045;SDS011;41913;51.030;3.706;2023-11-21T09:29:50;3.67;;;3.05;;
56045;SDS011;41913;51.030;3.706;2023-11-21T09:32:19;5.28;;;3.55;;
56045;SDS011;41913;51.030;3.706;2023-11-21T09:34:47;3.42;;;3.05;;
56045;SDS011;41913;51.030;3.706;2023-11-21T09:37:14;2.53;;;2.35;;
56045;SDS011;41913;51.030;3.706;2023-11-21T09:39:40;6.63;;;3.03;;
56045;SDS011;41913;51.030;3.706;2023-11-21T09:47:48;2.90;;;2.47;;
56045;SDS011;41913;51.030;3.706;2023-11-21T09:50:17;3.90;;;2.63;;
56045;SDS011;41913;51.030;3.706;2023-11-21T09:55:22;2.03;;;1.92;;
56045;SDS011;41913;51.030;3.706;2023-11-21T09:57:52;2.20;;;1.98;;
56045;SDS011;41913;51.030;3.706;2023-11-21T10:00:19;2.13;;;1.92;;
56045;SDS011;41913;51.030;3.706;2023-11-21T10:02:48;2.15;;;1.60;;
56045;SDS011;41913;51.030;3.706;2023-11-21T10:05:15;2.15;;;1.70;;
56045;SDS011;41913;51.030;3.706;2023-11-21T10:07:43;1.33;;;1.30;;
56045;SDS011;41913;51.030;3.706;2023-11-21T10:10:10;4.88;;;1.58;;
56045;SDS011;41913;51.030;3.706;2023-11-21T10:12:37;1.85;;;1.63;;
56045;SDS011;41913;51.030;3.706;2023-11-21T10:15:03;1.33;;;1.20;;
56045;SDS011;41913;51.030;3.706;2023-11-21T10:17:35;2.35;;;1.20;;
56045;SDS011;41913;51.030;3.706;2023-11-21T10:20:10;1.45;;;1.30;;
56045;SDS011;41913;51.030;3.706;2023-11-21T10:22:42;2.08;;;1.30;;
56045;SDS011;41913;51.030;3.706;2023-11-21T10:25:12;1.63;;;1.13;;
56045;SDS011;41913;51.030;3.706;2023-11-21T10:27:42;2.13;;;1.15;;
56045;SDS011;41913;51.030;3.706;2023-11-21T10:30:11;3.13;;;1.25;;
56045;SDS011;41913;51.030;3.706;2023-11-21T10:32:40;1.67;;;1.00;;
56045;SDS011;41913;51.030;3.706;2023-11-21T10:35:07;2.75;;;1.73;;
56045;SDS011;41913;51.030;3.706;2023-11-21T10:37:36;3.45;;;1.35;;
56045;SDS011;41913;51.030;3.706;2023-11-21T10:40:08;1.30;;;1.20;;
56045;SDS011;41913;51.030;3.706;2023-11-21T10:42:39;5.20;;;1.85;;
56045;SDS011;41913;51.030;3.706;2023-11-21T10:45:09;2.55;;;0.95;;
56045;SDS011;41913;51.030;3.706;2023-11-21T10:47:42;1.37;;;1.03;;
56045;SDS011;41913;51.030;3.706;2023-11-21T10:50:09;1.58;;;0.98;;
56045;SDS011;41913;51.030;3.706;2023-11-21T10:52:42;1.05;;;0.95;;
56045;SDS011;41913;51.030;3.706;2023-11-21T10:55:21;1.08;;;1.08;;
56045;SDS011;41913;51.030;3.706;2023-11-21T10:57:49;3.75;;;1.02;;
56045;SDS011;41913;51.030;3.706;2023-11-21T11:00:18;1.85;;;1.15;;
56045;SDS011;41913;51.030;3.706;2023-11-21T11:02:48;1.73;;;1.63;;
56045;SDS011;41913;51.030;3.706;2023-11-21T11:05:16;1.92;;;1.02;;
56045;SDS011;41913;51.030;3.706;2023-11-21T11:07:50;3.15;;;1.67;;
56045;SDS011;41913;51.030;3.706;2023-11-21T11:10:25;1.65;;;1.40;;
56045;SDS011;41913;51.030;3.706;2023-11-21T11:12:53;0.90;;;0.90;;
56045;SDS011;41913;51.030;3.706;2023-11-21T11:15:20;1.02;;;1.00;;
56045;SDS011;41913;51.030;3.706;2023-11-21T11:17:47;1.73;;;1.58;;
56045;SDS011;41913;51.030;3.706;2023-11-21T11:20:14;1.65;;;1.30;;
56045;SDS011;41913;51.030;3.706;2023-11-21T11:34:30;3.45;;;1.17;;
56045;SDS011;41913;51.030;3.706;2023-11-21T11:42:03;1.83;;;1.02;;
56045;SDS011;41913;51.030;3.706;2023-11-21T11:47:30;1.60;;;0.93;;
56045;SDS011;41913;51.030;3.706;2023-11-21T11:52:47;2.63;;;1.27;;
56045;SDS011;41913;51.030;3.706;2023-11-21T11:55:16;4.07;;;1.35;;
56045;SDS011;41913;51.030;3.706;2023-11-21T11:57:43;3.28;;;1.27;;
56045;SDS011;41913;51.030;3.706;2023-11-21T12:00:18;3.47;;;1.50;;
56045;SDS011;41913;51.030;3.706;2023-11-21T12:03:00;1.20;;;1.10;;
56045;SDS011;41913;51.030;3.706;2023-11-21T12:05:28;1.20;;;0.93;;
56045;SDS011;41913;51.030;3.706;2023-11-21T12:07:59;6.20;;;1.15;;
56045;SDS011;41913;51.030;3.706;2023-11-21T12:10:28;2.63;;;1.00;;
56045;SDS011;41913;51.030;3.706;2023-11-21T12:13:02;1.23;;;1.08;;
56045;SDS011;41913;51.030;3.706;2023-11-21T12:15:33;1.15;;;1.15;;
56045;SDS011;41913;51.030;3.706;2023-11-21T12:18:00;5.88;;;1.08;;
56045;SDS011;41913;51.030;3.706;2023-11-21T12:20:26;3.03;;;0.90;;
56045;SDS011;41913;51.030;3.706;2023-11-21T12:22:53;1.05;;;0.90;;
56045;SDS011;41913;51.030;3.706;2023-11-21T12:25:21;1.38;;;1.13;;
56045;SDS011;41913;51.030;3.706;2023-11-21T12:27:49;1.92;;;1.33;;
56045;SDS011;41913;51.030;3.706;2023-11-21T12:30:18;3.28;;;1.20;;
56045;SDS011;41913;51.030;3.706;2023-11-21T12:32:53;3.88;;;1.10;;
56045;SDS011;41913;51.030;3.706;2023-11-21T12:35:22;1.83;;;1.17;;
56045;SDS011;41913;51.030;3.706;2023-11-21T12:37:59;1.25;;;1.15;;
56045;SDS011;41913;51.030;3.706;2023-11-21T12:40:25;1.83;;;1.23;;
56045;SDS011;41913;51.030;3.706;2023-11-21T12:42:53;2.20;;;1.08;;
56045;SDS011;41913;51.030;3.706;2023-11-21T12:50:14;2.65;;;1.40;;
56045;SDS011;41913;51.030;3.706;2023-11-21T12:52:41;4.28;;;1.08;;
56045;SDS011;41913;51.030;3.706;2023-11-21T12:55:12;1.13;;;1.03;;
56045;SDS011;41913;51.030;3.706;2023-11-21T12:57:47;2.17;;;1.52;;
56045;SDS011;41913;51.030;3.706;2023-11-21T13:00:17;2.92;;;0.90;;
56045;SDS011;41913;51.030;3.706;2023-11-21T13:02:57;2.50;;;1.10;;
56045;SDS011;41913;51.030;3.706;2023-11-21T13:05:30;1.02;;;1.00;;
56045;SDS011;41913;51.030;3.706;2023-11-21T13:07:59;2.33;;;1.10;;
56045;SDS011;41913;51.030;3.706;2023-11-21T13:10:28;2.15;;;1.00;;
56045;SDS011;41913;51.030;3.706;2023-11-21T13:12:56;1.25;;;1.15;;
56045;SDS011;41913;51.030;3.706;2023-11-21T13:15:29;2.47;;;1.45;;
56045;SDS011;41913;51.030;3.706;2023-11-21T13:17:57;1.63;;;1.20;;
56045;SDS011;41913;51.030;3.706;2023-11-21T13:20:24;1.00;;;0.90;;
56045;SDS011;41913;51.030;3.706;2023-11-21T13:22:51;1.38;;;1.05;;
56045;SDS011;41913;51.030;3.706;2023-11-21T13:25:26;1.33;;;0.90;;
56045;SDS011;41913;51.030;3.706;2023-11-21T13:27:55;2.47;;;1.30;;
56045;SDS011;41913;51.030;3.706;2023-11-21T13:30:22;0.85;;;0.80;;
56045;SDS011;41913;51.030;3.706;2023-11-21T13:32:56;0.88;;;0.73;;
56045;SDS011;41913;51.030;3.706;2023-11-21T13:35:23;5.05;;;1.42;;
56045;SDS011;41913;51.030;3.706;2023-11-21T13:38:07;0.90;;;0.90;;
56045;SDS011;41913;51.030;3.706;2023-11-21T13:40:35;1.77;;;1.05;;
56045;SDS011;41913;51.030;3.706;2023-11-21T13:43:08;0.77;;;0.77;;
56045;SDS011;41913;51.030;3.706;2023-11-21T13:45:40;1.05;;;0.98;;
56045;SDS011;41913;51.030;3.706;2023-11-21T13:48:07;2.10;;;0.85;;
56045;SDS011;41913;51.030;3.706;2023-11-21T13:50:39;1.50;;;1.20;;
56045;SDS011;41913;51.030;3.706;2023-11-21T13:53:11;1.30;;;1.20;;
56045;SDS011;41913;51.030;3.706;2023-11-21T13:55:47;0.95;;;0.95;;
56045;SDS011;41913;51.030;3.706;2023-11-21T13:58:14;0.85;;;0.70;;
56045;SDS011;41913;51.030;3.706;2023-11-21T14:00:47;0.85;;;0.70;;
56045;SDS011;41913;51.030;3.706;2023-11-21T14:03:21;1.13;;;0.82;;
56045;SDS011;41913;51.030;3.706;2023-11-21T14:05:50;0.82;;;0.82;;
56045;SDS011;41913;51.030;3.706;2023-11-21T14:08:22;0.90;;;0.88;;
56045;SDS011;41913;51.030;3.706;2023-11-21T14:10:53;1.65;;;1.10;;
56045;SDS011;41913;51.030;3.706;2023-11-21T14:13:24;1.25;;;1.05;;
56045;SDS011;41913;51.030;3.706;2023-11-21T14:15:51;1.08;;;1.08;;
56045;SDS011;41913;51.030;3.706;2023-11-21T14:18:25;1.30;;;1.20;;
56045;SDS011;41913;51.030;3.706;2023-11-21T14:21:18;1.55;;;1.45;;
56045;SDS011;41913;51.030;3.706;2023-11-21T14:23:44;0.90;;;0.90;;
56045;SDS011;41913;51.030;3.706;2023-11-21T14:26:11;0.90;;;0.90;;
56045;SDS011;41913;51.030;3.706;2023-11-21T14:28:40;0.93;;;0.93;;
56045;SDS011;41913;51.030;3.706;2023-11-21T14:31:07;0.95;;;0.95;;
56045;SDS011;41913;51.030;3.706;2023-11-21T14:33:38;1.20;;;1.20;;
56045;SDS011;41913;51.030;3.706;2023-11-21T14:36:04;1.45;;;0.95;;
56045;SDS011;41913;51.030;3.706;2023-11-21T14:38:34;1.65;;;1.55;;
56045;SDS011;41913;51.030;3.706;2023-11-21T14:41:00;0.95;;;0.95;;
56045;SDS011;41913;51.030;3.706;2023-11-21T14:43:26;1.67;;;1.10;;
56045;SDS011;41913;51.030;3.706;2023-11-21T14:45:55;1.00;;;1.00;;
56045;SDS011;41913;51.030;3.706;2023-11-21T14:48:24;0.90;;;0.90;;
56045;SDS011;41913;51.030;3.706;2023-11-21T14:51:07;0.93;;;0.93;;
56045;SDS011;41913;51.030;3.706;2023-11-21T14:53:38;1.30;;;1.23;;
56045;SDS011;41913;51.030;3.706;2023-11-21T14:56:20;1.52;;;1.42;;
56045;SDS011;41913;51.030;3.706;2023-11-21T14:59:06;1.50;;;1.40;;
56045;SDS011;41913;51.030;3.706;2023-11-21T15:01:37;1.40;;;1.17;;
56045;SDS011;41913;51.030;3.706;2023-11-21T15:04:20;1.30;;;1.20;;
56045;SDS011;41913;51.030;3.706;2023-11-21T15:07:05;1.20;;;1.20;;
56045;SDS011;41913;51.030;3.706;2023-11-21T15:09:31;1.35;;;1.15;;
56045;SDS011;41913;51.030;3.706;2023-11-21T15:11:57;1.52;;;0.68;;
56045;SDS011;41913;51.030;3.706;2023-11-21T15:14:29;0.90;;;0.90;;
56045;SDS011;41913;51.030;3.706;2023-11-21T15:16:59;2.40;;;1.25;;
56045;SDS011;41913;51.030;3.706;2023-11-21T15:19:26;1.20;;;1.20;;
56045;SDS011;41913;51.030;3.706;2023-11-21T15:21:54;1.15;;;1.15;;
56045;SDS011;41913;51.030;3.706;2023-11-21T15:24:20;1.40;;;1.30;;
56045;SDS011;41913;51.030;3.706;2023-11-21T15:26:45;1.55;;;1.42;;
56045;SDS011;41913;51.030;3.706;2023-11-21T15:29:11;1.17;;;1.17;;
56045;SDS011;41913;51.030;3.706;2023-11-21T15:31:38;1.17;;;1.17;;